Estación Meteorológica Peña el Pijo (Robertgarden) [ 05/25/19 23:25:52 CEST ]

Fecha Hora Presion(HPa) Temp (°C) Humedad % Rocio (°C) Viento ( m/s) Direccion Lluvia 1Hora(mm) Lluvia 24H(mm) LLuvia Total(mm)
2019-May-17 01:01:54 998.900 17.5 51 7.2         318.05
2019-May-17 02:02:02 998.200 16.3 49 5.5         318.05
2019-May-17 03:01:44 998.200 15.3 49 4.6         318.05
2019-May-17 04:04:08 997.500 14.5 49 3.9         318.05
2019-May-17 05:01:31 997.900 13.3 54 4.1         318.05
2019-May-17 06:02:03 998.000 13.0 57 4.6 0.2 WNW     318.05
2019-May-17 07:01:59 998.400 11.6 58 3.6 0.7 WNW     318.05
2019-May-17 08:01:53 998.900 11.6 58 3.6 2.2 WNW     318.05
2019-May-17 09:01:32 998.900 12.6 55 3.7 2.5 N     318.05
2019-May-17 10:01:56 1000.000 14.4 48 3.5 1.4 WNW     318.05
2019-May-17 11:01:43 999.900 16.9 42 3.8 1.7 WNW     318.05
2019-May-17 12:01:46 1000.300 17.4 39 3.3 2.3 NNE     318.05
2019-May-17 13:01:45 1001.400 17.9 35 2.1         318.05
2019-May-17 14:01:45 1001.700 18.3 36 2.9 1.3 WNW     318.05
2019-May-17 15:01:56 1001.600 20.3 32 3.0         318.05
2019-May-17 16:01:33 1001.400 20.9 31 3.1 1.0 WNW     318.05
2019-May-17 17:01:53 1001.100 19.7 32 2.5         318.05
2019-May-17 18:01:53 1001.300 19.1 31 1.6 2.4 N     318.05
2019-May-17 19:01:31 1001.300 17.8 34 1.4         318.05
2019-May-17 20:01:35 1001.300 15.8 35 0.2 1.8 N     318.05
2019-May-17 21:01:33 1001.500 14.4 39 0.6         318.05
2019-May-17 22:01:50 1002.200 12.9 50 2.7         318.05
2019-May-17 23:01:46 1003.000 13.1 48 2.3         318.05

Temperatura Máxima:20°    Temperatura Mínima:11°
Presión Máxima:1003.000 Hpa    Presión Mínima:997.500 Hpa


Volver